Acme, Louisiana
Current Conditions -  °F | °C
As of 7:53 AM on Sunday 23 Nov 2014 (Local Time) from KESF Reporting Station
Overcast Overcast  
Wind Chill: 65°   Ceiling: 1200
Heat Index: 65°   Visibility: 10mi
Dew Point: 61°   Wind: 15mph
Humidity: 87%   Direction: 190°S
Pressure: 29.51"   Gusts: 31mph
Location:  31.29°N, 91.82°W
Report Text: KESF 231353Z AUTO 19013G27KT 10SM BKN012 OVC018 18/16 A2951 RMK AO2 PK WND 19027/1344 RAE22 SLP992 P0002 T01830161
Loading
Personal Weather Stations






























Interactive Weather Map New forecast layout! Learn more

10-Day Weather Forecast

Advertisements
Track Severe Weather on mobile